Terminal Aerodrome Forecast
Issued by NWS

Home | Current Version | Previous Version | Text Only | Print | Product List | Glossary On
Versions: 1 2 3 4 5 6 7 8 9 10 11 12 13
000
FTUS45 KGGW 311700
TAFSDY
TAF
KSDY 311729Z 3118/0118 17007KT P6SM FEW050 SCT100
     FM312000 16060KT P6SM VCTS SCT080CB BKN120
     FM010300 VRB04KT P6SM FEW120
     FM011500 09007KT P6SM SKC
      AMD LTD TO CLD VIS AND WIND=

USA.gov is the U.S. government's official web portal to all federal, state and local government web resources and services.